Time;durP1;ratioP1;P1;durP2;ratioP2;P2;SDS_P1;SDS_P2;PMS_P1;PMS_P2;Temp;Humidity;BMP_temperature;BMP_pressure;BME280_temperature;BME280_humidity;BME280_pressure;Samples;Min_cycle;Max_cycle;Signal;HPM_P1;HPM_P2
2022/07/11 00:01:15;;;;;;;2.97;2.10;;;;;;;17.34;57.50;95464.13;5106807;28;20383;-79
2022/07/11 00:03:40;;;;;;;3.45;2.00;;;;;;;17.36;57.54;95460.13;5070670;28;20534;-79
2022/07/11 00:06:06;;;;;;;4.95;2.00;;;;;;;17.34;57.42;95453.28;5087552;28;20535;-80
2022/07/11 00:08:31;;;;;;;3.45;2.00;;;;;;;17.23;57.25;95458.38;5106112;28;20023;-80
2022/07/11 00:10:57;;;;;;;4.05;2.30;;;;;;;17.01;58.10;95449.69;5087617;28;20085;-79
2022/07/11 00:13:22;;;;;;;2.90;1.90;;;;;;;17.03;56.93;95450.31;5106593;28;20032;-80
2022/07/11 00:15:48;;;;;;;2.40;1.60;;;;;;;17.14;56.32;95455.09;5087914;28;20034;-80
2022/07/11 00:18:13;;;;;;;3.10;1.77;;;;;;;17.10;55.97;95456.56;5088765;28;20217;-79
2022/07/11 00:20:38;;;;;;;4.47;1.60;;;;;;;17.11;56.17;95455.53;5105867;28;20020;-80
2022/07/11 00:23:04;;;;;;;3.60;1.75;;;;;;;17.04;55.85;95454.69;5107098;28;20024;-80
2022/07/11 00:25:29;;;;;;;2.70;1.85;;;;;;;16.96;56.16;95457.66;5106000;28;20019;-80
2022/07/11 00:27:55;;;;;;;2.25;1.70;;;;;;;16.98;56.33;95461.81;5088494;28;20469;-81
2022/07/11 00:30:20;;;;;;;2.63;1.60;;;;;;;17.06;55.35;95463.44;5105920;28;20030;-80
2022/07/11 00:32:47;;;;;;;2.90;1.50;;;;;;;16.87;55.83;95463.34;5087765;28;20019;-80
2022/07/11 00:35:12;;;;;;;2.45;1.60;;;;;;;16.94;55.60;95466.00;5088167;28;20024;-80
2022/07/11 00:37:38;;;;;;;2.35;1.52;;;;;;;16.69;56.08;95469.44;5105626;28;20634;-80
2022/07/11 00:40:04;;;;;;;2.08;1.50;;;;;;;16.64;56.17;95470.09;5088808;28;20036;-79
2022/07/11 00:42:29;;;;;;;3.78;1.75;;;;;;;16.65;55.99;95468.22;5087266;28;20055;-79
2022/07/11 00:44:55;;;;;;;4.55;1.80;;;;;;;16.48;56.96;95471.41;5088819;28;20031;-79
2022/07/11 00:47:20;;;;;;;3.80;1.65;;;;;;;16.63;56.50;95473.03;5087144;28;20024;-80
2022/07/11 00:49:46;;;;;;;2.40;1.50;;;;;;;16.48;56.94;95473.28;5071466;28;20380;-80
2022/07/11 00:52:11;;;;;;;1.77;1.35;;;;;;;16.48;56.76;95474.13;5087709;28;20362;-80
2022/07/11 00:54:37;;;;;;;3.03;1.58;;;;;;;16.44;57.08;95468.28;5105837;28;20046;-80
2022/07/11 00:57:03;;;;;;;4.70;1.65;;;;;;;16.51;57.24;95470.13;5074642;28;20035;-80
2022/07/11 00:59:29;;;;;;;2.35;1.55;;;;;;;16.56;56.88;95462.22;5091416;28;20475;-80
2022/07/11 01:01:54;;;;;;;2.47;1.70;;;;;;;16.59;56.72;95463.69;5075521;28;20027;-81
2022/07/11 01:04:20;;;;;;;2.78;1.60;;;;;;;16.67;56.62;95469.66;5091496;28;20027;-81
2022/07/11 01:06:45;;;;;;;2.75;1.73;;;;;;;16.51;56.89;95473.69;5091977;28;20051;-80
2022/07/11 01:09:10;;;;;;;2.40;1.63;;;;;;;16.63;56.68;95473.88;5090675;28;20080;-80
2022/07/11 01:11:36;;;;;;;2.53;1.45;;;;;;;16.62;56.73;95474.06;5091950;28;20039;-79
2022/07/11 01:14:01;;;;;;;3.78;1.80;;;;;;;16.63;56.60;95468.44;5109350;28;20032;-79
2022/07/11 01:16:27;;;;;;;3.67;1.40;;;;;;;16.49;57.10;95466.84;5091763;28;20035;-80
2022/07/11 01:18:53;;;;;;;4.70;1.80;;;;;;;16.60;56.71;95474.28;5091582;28;20973;-80
2022/07/11 01:21:28;;;;;;;2.15;1.60;;;;;;;16.66;56.49;95472.59;5074822;28;20058;-79
2022/07/11 01:23:55;;;;;;;3.30;1.52;;;;;;;16.70;56.05;95475.72;5110052;28;20024;-79
2022/07/11 01:26:20;;;;;;;3.83;1.50;;;;;;;16.75;55.75;95474.00;5073932;28;20031;-80
2022/07/11 01:28:46;;;;;;;1.98;1.50;;;;;;;16.82;55.70;95476.69;5110247;28;20477;-79
2022/07/11 01:31:12;;;;;;;2.42;1.70;;;;;;;16.80;55.72;95476.06;5090702;28;20024;-79
2022/07/11 01:33:38;;;;;;;3.90;1.50;;;;;;;16.71;56.07;95474.66;5074509;28;20075;-79
2022/07/11 01:36:03;;;;;;;2.78;1.60;;;;;;;16.86;55.86;95468.97;5074127;28;20570;-79
2022/07/11 01:38:29;;;;;;;2.15;1.52;;;;;;;16.96;55.65;95468.50;5091357;28;20027;-79
2022/07/11 01:40:54;;;;;;;2.00;1.60;;;;;;;16.97;55.72;95478.28;5090947;28;20042;-79
2022/07/11 01:43:20;;;;;;;2.55;1.70;;;;;;;16.95;55.74;95470.38;5108743;28;20058;-79
2022/07/11 01:45:45;;;;;;;1.92;1.55;;;;;;;17.00;55.81;95464.31;5110243;28;20028;-79
2022/07/11 01:48:11;;;;;;;4.00;2.20;;;;;;;16.98;55.90;95463.69;5073261;28;20023;-79
2022/07/11 01:50:36;;;;;;;2.85;1.70;;;;;;;16.64;56.31;95467.38;5091885;28;20470;-79
2022/07/11 01:53:02;;;;;;;2.55;1.60;;;;;;;16.70;56.13;95470.28;5108890;28;20035;-80
2022/07/11 01:55:28;;;;;;;2.78;1.90;;;;;;;16.60;56.24;95477.00;5110165;28;20043;-80
2022/07/11 01:57:53;;;;;;;6.00;1.98;;;;;;;16.42;56.95;95467.69;5073836;28;20089;-79
2022/07/11 02:00:18;;;;;;;2.60;1.88;;;;;;;16.38;56.79;95471.84;5090739;28;20023;-80
2022/07/11 02:02:44;;;;;;;2.90;1.83;;;;;;;16.16;57.74;95477.53;5109395;28;20044;-80
2022/07/11 02:05:09;;;;;;;3.08;1.73;;;;;;;16.03;58.23;95477.56;5108222;28;20414;-79
2022/07/11 02:10:19;;;;;;;3.15;1.63;;;;;;;15.88;58.87;95486.69;5108133;28;20046;-79
2022/07/11 02:12:44;;;;;;;3.88;2.20;;;;;;;15.80;59.05;95495.00;5109511;28;20024;-80
2022/07/11 02:15:10;;;;;;;3.05;1.88;;;;;;;15.95;58.67;95494.81;5089419;28;20124;-80
2022/07/11 02:17:35;;;;;;;3.90;1.88;;;;;;;15.95;58.65;95492.09;5091134;28;20053;-80
2022/07/11 02:20:00;;;;;;;3.05;1.80;;;;;;;15.98;58.56;95490.88;5073587;28;20458;-80
2022/07/11 02:22:27;;;;;;;3.40;2.60;;;;;;;15.87;58.95;95485.03;5108534;28;20574;-78
2022/07/11 02:24:52;;;;;;;3.15;1.90;;;;;;;15.79;58.96;95493.34;5091105;28;20051;-80
2022/07/11 02:27:17;;;;;;;2.40;1.80;;;;;;;15.61;59.66;95497.50;5108405;28;20023;-81
2022/07/11 02:29:43;;;;;;;4.10;1.98;;;;;;;15.51;59.94;95492.50;5109570;28;20027;-79
2022/07/11 02:32:08;;;;;;;4.15;2.15;;;;;;;15.36;60.37;95500.84;5088885;28;20028;-79
2022/07/11 02:34:34;;;;;;;5.13;2.28;;;;;;;15.19;60.90;95495.81;5109964;28;20031;-79
2022/07/11 02:36:59;;;;;;;4.75;2.55;;;;;;;14.88;61.78;95502.56;5089285;28;20469;-79
2022/07/11 02:39:25;;;;;;;6.63;2.33;;;;;;;14.93;61.72;95494.69;5090054;28;20024;-80
2022/07/11 02:41:50;;;;;;;3.50;1.85;;;;;;;15.05;60.84;95491.41;5107873;28;20027;-79
2022/07/11 02:44:16;;;;;;;2.97;1.95;;;;;;;14.76;62.01;95507.69;5088891;28;20390;-80
2022/07/11 02:46:41;;;;;;;4.55;2.08;;;;;;;14.82;62.01;95508.78;5108435;28;20028;-80
2022/07/11 02:49:07;;;;;;;2.78;2.10;;;;;;;14.66;62.37;95504.53;5106675;28;20073;-82
2022/07/11 02:51:32;;;;;;;2.75;2.10;;;;;;;14.70;62.41;95509.31;5108145;28;20023;-80
2022/07/11 02:53:58;;;;;;;4.68;2.03;;;;;;;14.75;62.21;95516.00;5106621;28;20983;-79
2022/07/11 02:56:23;;;;;;;3.05;1.70;;;;;;;14.68;62.53;95506.00;5089836;28;20441;-79
2022/07/11 02:58:49;;;;;;;4.45;2.10;;;;;;;14.78;62.42;95510.19;5106723;28;20042;-80
2022/07/11 03:01:14;;;;;;;4.68;2.10;;;;;;;14.85;62.20;95507.56;5107824;28;20027;-79
2022/07/11 03:03:39;;;;;;;4.13;2.63;;;;;;;14.90;62.14;95516.69;5089489;28;20027;-79
2022/07/11 03:06:05;;;;;;;4.57;2.05;;;;;;;14.80;62.48;95519.78;5106590;28;20039;-80
2022/07/11 03:08:30;;;;;;;4.03;1.95;;;;;;;14.74;62.44;95515.16;5072468;28;20024;-80
2022/07/11 03:10:56;;;;;;;2.80;1.90;;;;;;;14.80;62.39;95518.94;5088204;28;20509;-81
2022/07/11 03:13:21;;;;;;;2.92;2.25;;;;;;;14.79;62.42;95523.53;5089214;28;20023;-80
2022/07/11 03:15:47;;;;;;;3.03;1.98;;;;;;;14.83;62.50;95523.97;5106170;28;20023;-79
2022/07/11 03:18:12;;;;;;;2.45;2.00;;;;;;;14.82;61.89;95527.69;5108235;28;20030;-79
2022/07/11 03:20:38;;;;;;;2.90;1.65;;;;;;;14.90;61.61;95524.81;5088655;28;20027;-79
2022/07/11 03:23:03;;;;;;;2.35;1.70;;;;;;;14.82;61.60;95525.81;5107726;28;20027;-80
2022/07/11 03:25:29;;;;;;;2.72;1.73;;;;;;;14.81;61.19;95523.31;5071432;28;20030;-80
2022/07/11 03:27:54;;;;;;;3.35;1.67;;;;;;;14.92;60.86;95533.53;5106457;28;20032;-81
2022/07/11 03:30:20;;;;;;;3.60;1.60;;;;;;;14.93;60.98;95535.19;5107171;28;20486;-80
2022/07/11 03:32:45;;;;;;;3.67;1.88;;;;;;;14.91;61.03;95531.03;5087815;28;20058;-81
2022/07/11 03:37:56;;;;;;;2.47;1.48;;;;;;;15.13;60.14;95534.44;5106335;28;20084;-80
2022/07/11 03:40:21;;;;;;;5.75;2.28;;;;;;;15.23;59.78;95536.75;5088418;28;20479;-80
2022/07/11 03:42:47;;;;;;;7.50;2.00;;;;;;;15.33;59.73;95539.06;5106640;28;20406;-80
2022/07/11 03:45:12;;;;;;;5.32;1.80;;;;;;;15.39;59.48;95538.25;5106069;28;20031;-80
2022/07/11 03:47:39;;;;;;;3.97;2.00;;;;;;;15.40;59.19;95542.59;5106718;28;20023;-80
2022/07/11 03:50:04;;;;;;;5.70;3.10;;;;;;;15.45;59.04;95550.09;5087163;28;20020;-79
2022/07/11 03:52:30;;;;;;;2.72;1.70;;;;;;;15.39;58.86;95542.81;5106767;28;20394;-80
2022/07/11 03:54:55;;;;;;;3.00;1.50;;;;;;;15.60;58.96;95559.91;5105190;28;20023;-80
2022/07/11 03:57:21;;;;;;;2.85;1.70;;;;;;;15.62;58.95;95557.84;5106707;28;20023;-80
2022/07/11 03:59:46;;;;;;;2.85;1.90;;;;;;;15.45;59.74;95561.75;5070625;28;20016;-80
2022/07/11 04:02:12;;;;;;;4.28;1.92;;;;;;;15.25;60.69;95563.56;5105826;28;20077;-79
2022/07/11 04:04:37;;;;;;;3.28;1.88;;;;;;;15.36;60.57;95572.94;5087987;28;20019;-78
2022/07/11 04:07:03;;;;;;;8.23;2.45;;;;;;;15.31;61.28;95563.56;5105618;28;20038;-79
2022/07/11 04:09:28;;;;;;;4.40;2.05;;;;;;;15.41;61.28;95576.69;5106398;28;20024;-80
2022/07/11 04:11:53;;;;;;;2.70;1.90;;;;;;;15.56;60.82;95570.28;5105519;28;20023;-80
2022/07/11 04:14:19;;;;;;;4.00;2.10;;;;;;;15.51;61.44;95561.97;5088554;28;20061;-81
2022/07/11 04:16:44;;;;;;;3.20;1.85;;;;;;;15.54;61.52;95567.78;5104941;28;20035;-80
2022/07/11 04:19:10;;;;;;;4.30;2.00;;;;;;;15.62;61.31;95566.75;5106574;28;20405;-80
2022/07/11 04:21:35;;;;;;;3.88;2.10;;;;;;;15.81;61.09;95578.63;5105327;28;20060;-80
2022/07/11 04:24:01;;;;;;;3.78;2.20;;;;;;;15.89;61.44;95579.47;5087382;28;20035;-80
2022/07/11 04:26:26;;;;;;;3.38;2.20;;;;;;;15.94;61.26;95585.09;5087336;28;20455;-80
2022/07/11 04:28:52;;;;;;;4.13;2.10;;;;;;;15.72;62.06;95579.06;5086654;28;20038;-80
2022/07/11 04:31:17;;;;;;;4.47;2.38;;;;;;;15.95;61.63;95586.75;5105693;28;20028;-80
2022/07/11 04:33:43;;;;;;;3.40;2.08;;;;;;;15.92;62.00;95584.47;5061320;28;20074;-79
2022/07/11 04:36:08;;;;;;;4.03;1.95;;;;;;;15.93;62.19;95586.13;5108519;28;20015;-80
2022/07/11 04:38:33;;;;;;;5.10;2.10;;;;;;;16.01;62.00;95588.66;5105141;28;20039;-80
2022/07/11 04:40:59;;;;;;;4.97;2.10;;;;;;;15.93;62.33;95592.38;5087530;28;20501;-80
2022/07/11 04:43:24;;;;;;;3.20;2.15;;;;;;;16.07;62.30;95592.44;5105065;28;20054;-80
2022/07/11 04:45:50;;;;;;;5.03;2.20;;;;;;;16.30;61.53;95599.28;5104629;28;20024;-80
2022/07/11 04:48:15;;;;;;;3.10;2.08;;;;;;;16.40;61.42;95591.56;5105806;28;20028;-81
2022/07/11 04:50:44;;;;;;;3.13;2.05;;;;;;;16.66;60.16;95592.56;5086260;28;20080;-81
2022/07/11 04:53:11;;;;;;;4.53;2.30;;;;;;;16.75;59.15;95590.47;5106513;28;20495;-80
2022/07/11 04:55:40;;;;;;;6.55;2.40;;;;;;;16.99;58.76;95589.97;5086487;28;20031;-81
2022/07/11 04:58:06;;;;;;;3.05;1.88;;;;;;;17.25;58.26;95580.94;5089014;28;20032;-81
2022/07/11 05:00:32;;;;;;;3.58;1.90;;;;;;;17.48;56.73;95582.28;5087136;28;20031;-80
2022/07/11 05:02:57;;;;;;;6.28;2.25;;;;;;;17.51;55.82;95583.72;5105475;28;20032;-81
2022/07/11 05:05:23;;;;;;;3.28;1.90;;;;;;;17.55;55.81;95598.53;5105396;28;20534;-81
2022/07/11 05:07:49;;;;;;;3.35;1.70;;;;;;;17.56;55.19;95586.63;5104516;28;20019;-81
2022/07/11 05:10:14;;;;;;;4.45;2.05;;;;;;;17.52;55.59;95593.53;5087695;28;20146;-80
2022/07/11 05:12:40;;;;;;;6.22;1.98;;;;;;;17.71;55.38;95593.63;5104430;28;20034;-80
2022/07/11 05:15:06;;;;;;;6.03;2.35;;;;;;;17.82;55.34;95595.63;5106066;28;20088;-80
2022/07/11 05:17:31;;;;;;;3.13;1.95;;;;;;;18.00;55.09;95597.59;5085817;28;20032;-81
2022/07/11 05:19:57;;;;;;;4.38;1.98;;;;;;;18.21;54.74;95613.75;5086995;28;20044;-79
2022/07/11 05:22:22;;;;;;;3.65;2.17;;;;;;;18.27;54.71;95594.72;5086242;28;20042;-80
2022/07/11 05:24:48;;;;;;;4.70;2.20;;;;;;;18.00;54.84;95602.19;5086233;28;20072;-81
2022/07/11 05:27:13;;;;;;;3.85;2.20;;;;;;;17.72;55.54;95597.97;5086640;28;20097;-80
2022/07/11 05:29:39;;;;;;;2.70;1.90;;;;;;;17.58;55.79;95595.38;5104452;28;20053;-81
2022/07/11 05:32:06;;;;;;;5.90;2.15;;;;;;;17.81;53.98;95599.41;5105344;28;20028;-82
2022/07/11 05:34:31;;;;;;;6.75;1.70;;;;;;;17.94;53.01;95603.91;5085634;28;20031;-80
2022/07/11 05:36:56;;;;;;;3.30;1.40;;;;;;;17.67;51.00;95613.03;5087302;28;20031;-80
2022/07/11 05:39:22;;;;;;;2.92;1.60;;;;;;;17.84;50.97;95604.41;5104206;28;20506;-81
2022/07/11 05:41:50;;;;;;;1.92;1.30;;;;;;;17.62;50.60;95599.28;5105995;28;20487;-81
2022/07/11 05:44:17;;;;;;;3.35;1.38;;;;;;;17.61;51.02;95589.50;5108488;28;20032;-80
2022/07/11 05:46:42;;;;;;;4.40;1.20;;;;;;;17.70;48.54;95602.81;5107699;28;20110;-80
2022/07/11 05:49:08;;;;;;;3.60;1.10;;;;;;;17.74;48.46;95594.03;5108725;28;20437;-80
2022/07/11 05:51:33;;;;;;;2.83;1.45;;;;;;;17.58;47.76;95608.94;5089310;28;20035;-80
2022/07/11 05:53:59;;;;;;;4.60;1.00;;;;;;;17.82;48.00;95608.34;5090797;28;20039;-80
2022/07/11 05:56:25;;;;;;;3.13;1.10;;;;;;;18.08;47.60;95614.66;5072133;28;20031;-80
2022/07/11 05:58:51;;;;;;;2.08;1.25;;;;;;;17.91;45.86;95616.03;5108949;28;20019;-80
2022/07/11 06:01:17;;;;;;;3.25;1.15;;;;;;;17.66;46.48;95614.09;5107884;28;20490;-80
2022/07/11 06:03:42;;;;;;;2.47;1.23;;;;;;;17.54;46.90;95610.38;5108153;28;20103;-80
2022/07/11 06:06:10;;;;;;;3.95;0.93;;;;;;;17.63;45.78;95611.81;5107752;28;20040;-81
2022/07/11 06:08:42;;;;;;;1.95;1.10;;;;;;;17.84;46.17;95611.69;5089326;28;20034;-80
2022/07/11 06:11:12;;;;;;;2.50;1.27;;;;;;;17.79;46.45;95621.34;5091190;28;20019;-80
2022/07/11 06:13:41;;;;;;;3.35;1.00;;;;;;;17.75;46.44;95622.00;5106778;28;20078;-80
2022/07/11 06:16:07;;;;;;;5.72;1.30;;;;;;;17.98;45.38;95617.84;5073217;28;20151;-80
2022/07/11 06:18:33;;;;;;;4.00;1.33;;;;;;;18.10;43.93;95635.13;5107355;28;20126;-80
2022/07/11 06:20:58;;;;;;;3.10;1.25;;;;;;;18.31;42.88;95624.97;5089265;28;20055;-80
2022/07/11 06:23:24;;;;;;;1.23;0.68;;;;;;;18.10;42.67;95621.53;5108014;28;20042;-81
2022/07/11 06:25:49;;;;;;;2.13;0.90;;;;;;;18.10;41.53;95634.28;5106923;28;20039;-80
2022/07/11 06:28:15;;;;;;;9.93;1.63;;;;;;;18.31;40.15;95630.41;5073016;28;20038;-80
2022/07/11 06:30:40;;;;;;;0.98;0.55;;;;;;;18.14;40.41;95625.50;5106611;28;20028;-81
2022/07/11 06:33:06;;;;;;;3.05;0.98;;;;;;;17.80;41.05;95614.00;5073126;28;20106;-80
2022/07/11 06:35:31;;;;;;;9.23;1.25;;;;;;;17.92;41.24;95615.00;5088304;28;20035;-80
2022/07/11 06:37:56;;;;;;;2.33;0.93;;;;;;;17.90;41.40;95621.66;5073234;28;20313;-79
2022/07/11 06:40:23;;;;;;;3.70;0.95;;;;;;;17.79;42.42;95621.34;5106665;28;20024;-82
2022/07/11 06:42:48;;;;;;;3.63;1.13;;;;;;;17.72;41.60;95606.13;5089209;28;20530;-80
2022/07/11 06:45:14;;;;;;;1.40;0.65;;;;;;;17.79;42.14;95612.34;5072204;28;20027;-80
2022/07/11 06:47:39;;;;;;;3.42;0.90;;;;;;;17.66;42.96;95618.69;5088055;28;20024;-79
2022/07/11 06:50:05;;;;;;;3.85;0.80;;;;;;;17.66;41.62;95621.41;5089442;28;20031;-80
2022/07/11 06:52:31;;;;;;;2.38;0.80;;;;;;;17.55;41.97;95612.06;5086463;28;20023;-80
2022/07/11 06:54:58;;;;;;;1.98;0.98;;;;;;;17.67;41.58;95618.47;5107529;28;20087;-79
2022/07/11 06:57:23;;;;;;;2.05;0.65;;;;;;;17.73;42.95;95610.50;5087954;28;20050;-80
2022/07/11 06:59:49;;;;;;;3.20;0.65;;;;;;;17.67;41.53;95613.03;5107946;28;20107;-79
2022/07/11 07:02:14;;;;;;;3.38;0.68;;;;;;;17.64;41.47;95602.63;5089077;28;20031;-80
2022/07/11 07:04:40;;;;;;;4.30;0.70;;;;;;;17.79;41.69;95612.34;5088191;28;20111;-81
2022/07/11 07:07:05;;;;;;;2.50;0.80;;;;;;;17.89;41.08;95607.25;5107065;28;20048;-82
2022/07/11 07:09:30;;;;;;;3.17;0.80;;;;;;;17.85;41.59;95600.63;5087588;28;20028;-79
2022/07/11 07:11:56;;;;;;;4.63;0.77;;;;;;;17.83;41.67;95623.59;5089200;28;20459;-80
2022/07/11 07:14:21;;;;;;;3.92;0.77;;;;;;;17.86;40.27;95607.69;5070421;28;20036;-81
2022/07/11 07:16:47;;;;;;;1.15;0.60;;;;;;;17.99;40.05;95616.81;5107431;28;20503;-80
2022/07/11 07:19:13;;;;;;;1.38;0.60;;;;;;;17.76;39.90;95601.94;5088330;28;20028;-80
2022/07/11 07:21:38;;;;;;;2.00;0.80;;;;;;;17.65;39.41;95604.28;5087917;28;20027;-81
2022/07/11 07:24:05;;;;;;;4.18;0.68;;;;;;;17.95;39.73;95618.28;5106712;28;20139;-81
2022/07/11 07:26:31;;;;;;;1.98;0.70;;;;;;;17.91;39.05;95605.16;5105858;28;20154;-79
2022/07/11 07:28:56;;;;;;;3.15;0.70;;;;;;;17.85;39.33;95600.63;5088763;28;20027;-82
2022/07/11 07:31:22;;;;;;;1.98;0.70;;;;;;;17.96;40.08;95604.50;5086999;28;20031;-80
2022/07/11 07:33:48;;;;;;;2.10;0.70;;;;;;;18.01;40.38;95601.13;5089161;28;20031;-80
2022/07/11 07:36:14;;;;;;;3.30;0.75;;;;;;;17.97;41.30;95597.22;5087338;28;20080;-80
2022/07/11 07:38:41;;;;;;;5.18;0.90;;;;;;;18.02;40.77;95594.66;5106687;28;20088;-80
2022/07/11 07:41:06;;;;;;;2.97;0.90;;;;;;;17.92;40.47;95584.31;5088316;28;20035;-81
2022/07/11 07:43:32;;;;;;;4.78;0.70;;;;;;;17.97;40.55;95597.22;5087072;28;20081;-80
2022/07/11 07:45:57;;;;;;;3.92;0.77;;;;;;;17.99;40.83;95581.53;5071276;28;20035;-80
2022/07/11 07:48:23;;;;;;;3.55;0.55;;;;;;;18.00;40.17;95581.31;5086911;28;20020;-82
2022/07/11 07:50:48;;;;;;;2.65;0.80;;;;;;;17.89;40.39;95590.16;5106825;28;20032;-80
2022/07/11 07:53:15;;;;;;;1.83;0.80;;;;;;;17.81;40.50;95588.56;5086671;28;20035;-81
2022/07/11 07:55:40;;;;;;;1.92;0.70;;;;;;;17.97;40.63;95603.47;5088205;28;20023;-79
2022/07/11 07:58:05;;;;;;;4.18;0.75;;;;;;;17.89;39.58;95601.84;5087053;28;20019;-81
2022/07/11 08:03:15;;;;;;;1.65;0.80;;;;;;;18.16;39.68;95625.28;5106503;28;20039;-80
2022/07/11 08:05:40;;;;;;;4.05;0.60;;;;;;;18.28;39.67;95622.69;5082754;28;20434;-80
2022/07/11 08:08:06;;;;;;;2.70;0.63;;;;;;;18.34;39.42;95635.38;5086153;28;20380;-80
2022/07/11 08:10:31;;;;;;;4.93;1.00;;;;;;;18.13;39.68;95626.56;5084141;28;20371;-80
2022/07/11 08:12:57;;;;;;;2.00;0.75;;;;;;;18.37;38.99;95634.09;5086044;28;20031;-80
2022/07/11 08:15:22;;;;;;;6.80;0.80;;;;;;;18.25;39.23;95634.00;5084792;28;20032;-79
2022/07/11 08:17:48;;;;;;;1.05;0.57;;;;;;;18.28;39.22;95634.34;5083781;28;20066;-81
2022/07/11 08:20:13;;;;;;;1.58;0.50;;;;;;;18.50;38.44;95641.28;5085511;28;20028;-79
2022/07/11 08:22:39;;;;;;;1.73;0.60;;;;;;;18.39;39.23;95626.56;5084270;28;20027;-81
2022/07/11 08:25:04;;;;;;;1.73;0.70;;;;;;;18.50;38.26;95644.00;5084474;28;20027;-81
2022/07/11 08:27:30;;;;;;;1.20;0.60;;;;;;;18.37;38.39;95623.22;5084237;28;20024;-80
2022/07/11 08:29:56;;;;;;;1.45;0.60;;;;;;;18.40;37.82;95622.78;5084233;28;20031;-80
2022/07/11 08:32:21;;;;;;;15.02;1.52;;;;;;;18.23;37.71;95617.91;5066082;28;20071;-80
2022/07/11 08:34:47;;;;;;;3.55;0.50;;;;;;;18.32;37.35;95636.63;5083947;28;20024;-81
2022/07/11 08:37:12;;;;;;;3.67;0.70;;;;;;;18.38;37.45;95642.00;5083253;28;20847;-81
2022/07/11 08:39:37;;;;;;;1.30;0.65;;;;;;;18.55;37.63;95627.03;5083167;28;20020;-81
2022/07/11 08:42:03;;;;;;;2.03;0.60;;;;;;;18.32;37.60;95642.06;5084926;28;20034;-80
2022/07/11 08:44:29;;;;;;;3.13;0.73;;;;;;;18.35;37.01;95614.47;5082677;28;20026;-81
2022/07/11 08:46:54;;;;;;;0.95;0.40;;;;;;;18.25;36.09;95653.00;5083990;28;20357;-79
2022/07/11 08:49:20;;;;;;;1.88;0.73;;;;;;;18.31;34.80;95624.97;5065483;28;20394;-80
2022/07/11 08:51:46;;;;;;;2.47;0.68;;;;;;;18.36;34.53;95632.44;5084061;28;20039;-79
2022/07/11 08:54:12;;;;;;;2.38;0.63;;;;;;;18.25;34.63;95617.72;5065683;28;20514;-80
2022/07/11 08:56:37;;;;;;;2.05;0.52;;;;;;;18.37;35.52;95621.34;5083640;28;20024;-80
2022/07/11 08:59:03;;;;;;;2.95;0.70;;;;;;;18.46;35.71;95623.78;5066351;28;20031;-81
2022/07/11 09:01:33;;;;;;;2.95;0.60;;;;;;;18.68;35.07;95601.66;5066034;28;20032;-80
2022/07/11 09:03:59;;;;;;;2.38;0.57;;;;;;;18.48;36.61;95586.38;5083584;28;20024;-80
2022/07/11 09:06:24;;;;;;;2.47;0.70;;;;;;;18.60;36.07;95625.34;5082024;28;20074;-80
2022/07/11 09:08:50;;;;;;;1.73;0.60;;;;;;;18.70;35.78;95599.53;5083687;28;20039;-81
2022/07/11 09:11:15;;;;;;;5.95;0.60;;;;;;;18.41;35.67;95597.28;5083512;28;20394;-82
2022/07/11 09:13:41;;;;;;;6.43;0.80;;;;;;;18.37;34.85;95593.38;5084113;28;20095;-80
2022/07/11 09:16:07;;;;;;;4.60;0.70;;;;;;;18.22;33.85;95618.13;5082901;28;20134;-80
2022/07/11 09:18:34;;;;;;;6.38;0.77;;;;;;;18.25;34.73;95625.84;5070333;28;20028;-79
2022/07/11 09:26:34;;;;;;;1.98;0.70;;;;;;;18.35;36.77;95588.16;5089387;28;20089;-81
2022/07/11 09:29:03;;;;;;;4.88;0.90;;;;;;;18.32;35.43;95631.19;5086601;28;20024;-80
2022/07/11 09:31:29;;;;;;;2.08;0.73;;;;;;;18.56;35.11;95631.41;5087031;28;20028;-79
2022/07/11 09:34:05;;;;;;;2.05;0.70;;;;;;;18.62;35.80;95609.63;5070264;28;20456;-82
2022/07/11 09:36:44;;;;;;;3.30;0.77;;;;;;;18.44;35.94;95615.88;5086411;28;20024;-80
2022/07/11 09:39:13;;;;;;;2.65;0.70;;;;;;;18.77;35.59;95616.59;5087604;28;20039;-79
2022/07/11 09:41:39;;;;;;;2.25;0.68;;;;;;;18.71;36.17;95603.91;5069383;28;20028;-81
2022/07/11 09:44:22;;;;;;;1.40;0.57;;;;;;;18.72;36.37;95608.28;5087168;28;20103;-81
2022/07/11 09:46:49;;;;;;;4.55;0.60;;;;;;;18.67;36.00;95608.16;5086917;28;20020;-81
2022/07/11 09:49:15;;;;;;;2.38;0.63;;;;;;;18.67;36.63;95617.09;5085959;28;20043;-81
2022/07/11 09:51:41;;;;;;;4.53;0.70;;;;;;;18.77;35.69;95619.31;5070554;28;20073;-81
2022/07/11 09:54:06;;;;;;;2.95;0.65;;;;;;;18.71;36.84;95618.34;5068915;28;20103;-80
2022/07/11 09:56:35;;;;;;;5.35;0.90;;;;;;;18.82;37.21;95595.03;5070706;28;20031;-82
2022/07/11 09:59:02;;;;;;;2.92;0.88;;;;;;;18.95;37.43;95607.63;5087002;28;20063;-81
2022/07/11 10:01:28;;;;;;;1.63;0.70;;;;;;;18.92;36.99;95612.69;5070173;28;20032;-80
2022/07/11 10:03:53;;;;;;;1.70;0.70;;;;;;;18.97;36.25;95615.56;5069820;28;20027;-82
2022/07/11 10:06:19;;;;;;;2.42;0.82;;;;;;;18.92;35.13;95618.13;5099295;28;20044;-81
2022/07/11 10:08:44;;;;;;;2.83;0.80;;;;;;;18.83;35.62;95614.88;5108436;28;20130;-80
2022/07/11 10:11:11;;;;;;;2.08;0.60;;;;;;;18.95;34.81;95631.25;5088798;28;20077;-81
2022/07/11 10:13:36;;;;;;;1.63;0.70;;;;;;;18.64;35.48;95636.56;5073560;28;20024;-81
2022/07/11 10:16:04;;;;;;;1.85;0.70;;;;;;;18.74;36.86;95627.91;5107152;28;20026;-81
2022/07/11 10:18:35;;;;;;;1.75;0.95;;;;;;;18.88;36.60;95629.44;5073732;28;20031;-80
2022/07/11 10:21:07;;;;;;;4.47;0.90;;;;;;;18.70;36.30;95634.84;5088860;28;20118;-81
2022/07/11 10:23:38;;;;;;;2.17;0.80;;;;;;;18.68;37.03;95648.66;5073144;28;20531;-81
2022/07/11 10:26:26;;;;;;;2.05;0.70;;;;;;;18.80;37.19;95629.72;5090509;28;20057;-80
2022/07/11 10:28:54;;;;;;;2.72;0.75;;;;;;;18.85;36.29;95640.75;5088211;28;20027;-80
2022/07/11 10:31:23;;;;;;;2.47;0.70;;;;;;;18.89;35.87;95636.53;5089996;28;20016;-80
2022/07/11 10:34:05;;;;;;;1.95;0.73;;;;;;;18.93;36.63;95644.22;5088651;28;20027;-80
2022/07/11 10:36:31;;;;;;;4.40;0.80;;;;;;;18.91;36.87;95639.00;5107146;28;20031;-81
2022/07/11 10:39:29;;;;;;;4.45;0.73;;;;;;;18.85;34.86;95618.19;5089764;28;20234;-80
2022/07/11 10:41:57;;;;;;;4.15;0.93;;;;;;;18.86;34.96;95614.44;5074826;28;20031;-81
2022/07/11 10:44:23;;;;;;;2.78;0.90;;;;;;;18.95;36.33;95633.97;5073364;28;20020;-80
2022/07/11 10:46:48;;;;;;;2.72;0.80;;;;;;;18.98;36.29;95622.66;5106676;28;20027;-79
2022/07/11 10:49:14;;;;;;;3.85;1.00;;;;;;;19.04;36.04;95638.03;5072394;28;20023;-80
2022/07/11 10:51:47;;;;;;;1.90;0.85;;;;;;;18.90;35.65;95637.38;5107654;28;20024;-79
2022/07/11 10:54:19;;;;;;;1.70;0.70;;;;;;;18.98;35.72;95641.66;5106745;28;20051;-81
2022/07/11 10:56:56;;;;;;;2.58;0.70;;;;;;;19.15;34.65;95640.03;5107784;28;20031;-80
2022/07/11 10:59:22;;;;;;;4.43;0.90;;;;;;;19.15;36.46;95648.19;5105808;28;20096;-80
2022/07/11 11:02:12;;;;;;;2.30;0.80;;;;;;;19.26;35.25;95634.91;5089681;28;20023;-80
2022/07/11 11:04:50;;;;;;;2.67;0.75;;;;;;;19.44;35.58;95631.34;5088946;28;20031;-80
2022/07/11 11:07:32;;;;;;;3.05;0.88;;;;;;;19.52;35.41;95635.66;5087625;28;20433;-81
2022/07/11 11:09:58;;;;;;;2.85;0.82;;;;;;;19.30;35.28;95638.03;5107544;28;20486;-80
2022/07/11 11:13:06;;;;;;;3.10;0.73;;;;;;;19.49;34.97;95633.41;5087679;28;20099;-80
2022/07/11 11:15:51;;;;;;;2.10;0.80;;;;;;;19.10;36.22;95629.00;5104226;28;20042;-80
2022/07/11 11:18:25;;;;;;;2.60;0.70;;;;;;;19.32;36.48;95633.16;5107531;28;20043;-80
2022/07/11 11:21:02;;;;;;;1.77;0.80;;;;;;;19.48;35.82;95642.59;5105878;28;20015;-80
2022/07/11 11:23:35;;;;;;;3.05;0.77;;;;;;;19.64;35.21;95635.69;5107324;28;20090;-80
2022/07/11 11:26:14;;;;;;;5.30;0.93;;;;;;;19.63;35.53;95634.88;5071663;28;20489;-80
2022/07/11 11:29:00;;;;;;;3.03;0.90;;;;;;;19.78;35.45;95628.16;5088144;28;20038;-80
2022/07/11 11:31:26;;;;;;;5.13;0.85;;;;;;;20.00;36.31;95641.28;5107110;28;20572;-82
2022/07/11 11:33:52;;;;;;;5.32;0.80;;;;;;;20.09;34.75;95637.19;5087365;28;20466;-80
2022/07/11 11:36:20;;;;;;;1.67;0.70;;;;;;;19.96;35.79;95631.91;5107452;28;20102;-80
2022/07/11 11:38:46;;;;;;;6.13;0.98;;;;;;;20.06;35.28;95632.22;5086729;28;20468;-80
2022/07/11 11:41:13;;;;;;;5.00;0.90;;;;;;;20.13;34.67;95630.19;5071624;28;20114;-79
2022/07/11 11:43:39;;;;;;;2.33;0.95;;;;;;;20.26;35.22;95626.44;5106135;28;20028;-80
2022/07/11 11:46:05;;;;;;;1.85;0.82;;;;;;;20.34;35.54;95624.47;5070417;28;20405;-81